Time;durP1;ratioP1;P1;durP2;ratioP2;P2;SDS_P1;SDS_P2;PMS_P1;PMS_P2;Temp;Humidity;BMP_temperature;BMP_pressure;BME280_temperature;BME280_humidity;BME280_pressure;Samples;Min_cycle;Max_cycle;Signal;HPM_P1;HPM_P2
2022/09/14 00:02:25;;;;;;;3.55;1.95;;;;;;;;;;10193912;28;20607;-69
2022/09/14 00:07:26;;;;;;;2.20;2.00;;;;;;;;;;10194553;28;20089;-69
2022/09/14 00:12:24;;;;;;;4.00;2.08;;;;;;;;;;10200454;28;20112;-71
2022/09/14 00:17:23;;;;;;;4.03;2.38;;;;;;;;;;10200142;28;20038;-69
2022/09/14 00:22:21;;;;;;;2.55;1.80;;;;;;;;;;10200830;28;20045;-69
2022/09/14 00:27:20;;;;;;;2.33;2.13;;;;;;;;;;10200392;28;20049;-69
2022/09/14 00:32:19;;;;;;;3.65;2.00;;;;;;;;;;10199243;28;20077;-69
2022/09/14 00:37:17;;;;;;;5.00;1.98;;;;;;;;;;10199852;28;20050;-68
2022/09/14 00:42:18;;;;;;;2.85;2.00;;;;;;;;;;10200184;28;20050;-69
2022/09/14 00:47:18;;;;;;;4.07;2.00;;;;;;;;;;10199187;28;20344;-68
2022/09/14 00:52:20;;;;;;;4.43;2.28;;;;;;;;;;10199895;28;20492;-69
2022/09/14 00:57:18;;;;;;;4.35;1.90;;;;;;;;;;10199765;28;20037;-69
2022/09/14 01:02:19;;;;;;;2.63;2.30;;;;;;;;;;10199130;28;20046;-69
2022/09/14 01:07:23;;;;;;;4.93;2.22;;;;;;;;;;10199125;28;20054;-69
2022/09/14 01:12:26;;;;;;;2.15;1.95;;;;;;;;;;10198874;28;20084;-69
2022/09/14 01:17:27;;;;;;;3.28;2.33;;;;;;;;;;10200666;28;20240;-69
2022/09/14 01:22:31;;;;;;;2.92;2.13;;;;;;;;;;10200361;28;20050;-70
2022/09/14 01:27:34;;;;;;;3.90;2.73;;;;;;;;;;10206735;28;20046;-68
2022/09/14 01:32:34;;;;;;;2.90;2.47;;;;;;;;;;10206988;28;20050;-68
2022/09/14 01:37:35;;;;;;;4.50;2.20;;;;;;;;;;10198449;28;20044;-68
2022/09/14 01:42:35;;;;;;;5.45;2.60;;;;;;;;;;10195963;28;20082;-68
2022/09/14 01:47:35;;;;;;;4.80;2.33;;;;;;;;;;10197173;28;20049;-68
2022/09/14 01:52:37;;;;;;;6.15;2.60;;;;;;;;;;10195970;28;20057;-68
2022/09/14 01:57:39;;;;;;;3.65;2.58;;;;;;;;;;10195871;28;20041;-67
2022/09/14 02:02:39;;;;;;;7.18;2.63;;;;;;;;;;10196116;28;20041;-67
2022/09/14 02:07:38;;;;;;;2.58;2.25;;;;;;;;;;10194888;28;20049;-67
2022/09/14 02:12:37;;;;;;;5.28;2.63;;;;;;;;;;10211025;28;20081;-67
2022/09/14 02:17:36;;;;;;;4.60;2.88;;;;;;;;;;10194985;28;20078;-67
2022/09/14 02:22:35;;;;;;;3.53;2.78;;;;;;;;;;10195200;28;20054;-67
2022/09/14 02:27:33;;;;;;;3.05;2.33;;;;;;;;;;10195243;28;20495;-67
2022/09/14 02:32:35;;;;;;;3.03;2.45;;;;;;;;;;10194582;28;20089;-67
2022/09/14 02:37:47;;;;;;;6.53;2.42;;;;;;;;;;10195010;28;20041;-66
2022/09/14 02:42:47;;;;;;;3.60;1.90;;;;;;;;;;10194564;28;20034;-66
2022/09/14 02:47:54;;;;;;;4.75;2.47;;;;;;;;;;10194639;28;20052;-67
2022/09/14 02:52:57;;;;;;;3.08;2.70;;;;;;;;;;10193093;28;20421;-67
2022/09/14 02:57:59;;;;;;;3.05;2.33;;;;;;;;;;10194404;28;20076;-66
2022/09/14 03:02:59;;;;;;;2.72;2.40;;;;;;;;;;10193926;28;20046;-67
2022/09/14 03:07:57;;;;;;;7.70;2.72;;;;;;;;;;10193950;28;20081;-66
2022/09/14 03:12:55;;;;;;;2.75;2.55;;;;;;;;;;10192407;28;20486;-66
2022/09/14 03:17:53;;;;;;;4.95;2.55;;;;;;;;;;10193539;28;20090;-67
2022/09/14 03:22:53;;;;;;;2.83;2.47;;;;;;;;;;10194048;28;20427;-66
2022/09/14 03:27:53;;;;;;;5.15;2.85;;;;;;;;;;10193348;28;20045;-67
2022/09/14 03:32:51;;;;;;;5.28;2.70;;;;;;;;;;10193520;28;20077;-67
2022/09/14 03:37:50;;;;;;;7.35;2.85;;;;;;;;;;10193379;28;20076;-67
2022/09/14 03:42:50;;;;;;;2.78;2.58;;;;;;;;;;10194620;28;20058;-67
2022/09/14 03:47:48;;;;;;;2.47;2.28;;;;;;;;;;10201719;28;20081;-66
2022/09/14 03:52:47;;;;;;;2.90;2.65;;;;;;;;;;10202237;28;20518;-67
2022/09/14 03:57:45;;;;;;;5.68;2.50;;;;;;;;;;10199980;28;20431;-66
2022/09/14 04:02:45;;;;;;;7.88;6.95;;;;;;;;;;10200624;28;20081;-66
2022/09/14 04:07:43;;;;;;;5.03;3.08;;;;;;;;;;10200286;28;20061;-66
2022/09/14 04:12:41;;;;;;;3.65;2.47;;;;;;;;;;10200097;28;20073;-66
2022/09/14 04:17:40;;;;;;;8.98;7.00;;;;;;;;;;10200016;28;20045;-66
2022/09/14 04:22:39;;;;;;;3.88;3.33;;;;;;;;;;10199741;28;20104;-66
2022/09/14 04:27:38;;;;;;;7.80;4.45;;;;;;;;;;10200519;28;20495;-67
2022/09/14 04:32:36;;;;;;;6.03;3.65;;;;;;;;;;10198678;28;20096;-66
2022/09/14 04:37:34;;;;;;;8.35;3.75;;;;;;;;;;10198721;28;20073;-66
2022/09/14 04:42:34;;;;;;;3.72;2.90;;;;;;;;;;10199034;28;20065;-67
2022/09/14 04:47:32;;;;;;;3.88;3.05;;;;;;;;;;10197956;28;20054;-68
2022/09/14 04:52:40;;;;;;;4.32;2.78;;;;;;;;;;10195844;28;20084;-67
2022/09/14 04:57:45;;;;;;;3.78;3.22;;;;;;;;;;10198268;28;20487;-67
2022/09/14 05:02:43;;;;;;;7.00;3.20;;;;;;;;;;10192498;28;20077;-66
2022/09/14 05:07:44;;;;;;;6.28;3.08;;;;;;;;;;10196506;28;20077;-67
2022/09/14 05:12:44;;;;;;;4.65;3.03;;;;;;;;;;10195938;28;20110;-67
2022/09/14 05:17:44;;;;;;;4.63;3.15;;;;;;;;;;10195320;28;20945;-66
2022/09/14 05:22:48;;;;;;;6.30;2.70;;;;;;;;;;10175657;28;20566;-67
2022/09/14 05:27:53;;;;;;;4.57;2.67;;;;;;;;;;10194528;28;20041;-67
2022/09/14 05:32:52;;;;;;;5.72;3.70;;;;;;;;;;10196537;28;20061;-67
2022/09/14 05:38:04;;;;;;;9.47;3.13;;;;;;;;;;10195208;28;20069;-68
2022/09/14 05:43:04;;;;;;;5.38;3.30;;;;;;;;;;10194059;28;20070;-67
2022/09/14 05:48:03;;;;;;;5.97;3.50;;;;;;;;;;10193918;28;20172;-66
2022/09/14 05:53:04;;;;;;;7.50;3.25;;;;;;;;;;10193152;28;20049;-67
2022/09/14 05:58:04;;;;;;;7.03;2.67;;;;;;;;;;10192102;28;20093;-67
2022/09/14 06:03:06;;;;;;;5.50;3.08;;;;;;;;;;10191806;28;20518;-67
2022/09/14 06:08:04;;;;;;;6.80;3.30;;;;;;;;;;10192182;28;20085;-67
2022/09/14 06:13:04;;;;;;;3.38;2.90;;;;;;;;;;10192562;28;20065;-68
2022/09/14 06:18:02;;;;;;;4.35;3.33;;;;;;;;;;10193699;28;20065;-65
2022/09/14 06:23:00;;;;;;;4.50;2.75;;;;;;;;;;10191038;28;20409;-66
2022/09/14 06:27:59;;;;;;;3.22;2.40;;;;;;;;;;10193099;28;20466;-66
2022/09/14 06:32:58;;;;;;;5.93;2.88;;;;;;;;;;10189243;28;20089;-66
2022/09/14 06:37:56;;;;;;;3.40;2.80;;;;;;;;;;10187929;28;20460;-66
2022/09/14 06:42:56;;;;;;;3.58;2.58;;;;;;;;;;10188881;28;20074;-66
2022/09/14 06:47:54;;;;;;;2.50;2.30;;;;;;;;;;10193174;28;20496;-67
2022/09/14 06:52:55;;;;;;;5.60;2.47;;;;;;;;;;10194944;28;20070;-67
2022/09/14 06:57:53;;;;;;;4.88;2.53;;;;;;;;;;10195449;28;20081;-66
2022/09/14 07:02:51;;;;;;;5.30;2.45;;;;;;;;;;10195759;28;20496;-65
2022/09/14 07:07:53;;;;;;;2.72;1.95;;;;;;;;;;10195170;28;20428;-67
2022/09/14 07:12:53;;;;;;;3.13;2.50;;;;;;;;;;10194332;28;20523;-66
2022/09/14 07:17:51;;;;;;;3.05;2.55;;;;;;;;;;10194754;28;20073;-67
2022/09/14 07:22:49;;;;;;;4.75;2.67;;;;;;;;;;10194187;28;20046;-67
2022/09/14 07:27:47;;;;;;;5.78;2.40;;;;;;;;;;10193908;28;20065;-66
2022/09/14 07:32:47;;;;;;;4.32;2.58;;;;;;;;;;10193920;28;20085;-66
2022/09/14 07:37:45;;;;;;;3.38;2.30;;;;;;;;;;10193778;28;20060;-67
2022/09/14 07:42:43;;;;;;;16.95;2.10;;;;;;;;;;10193765;28;20066;-65
2022/09/14 07:47:41;;;;;;;5.72;2.28;;;;;;;;;;10194395;28;20046;-65
2022/09/14 07:52:41;;;;;;;5.18;2.60;;;;;;;;;;10192094;28;20073;-66
2022/09/14 07:57:39;;;;;;;3.72;2.88;;;;;;;;;;10193501;28;20077;-66
2022/09/14 08:02:54;;;;;;;2.87;2.40;;;;;;;;;;10192602;28;20046;-66
2022/09/14 08:07:56;;;;;;;6.68;3.20;;;;;;;;;;10193106;28;20500;-67
2022/09/14 08:12:55;;;;;;;5.70;2.28;;;;;;;;;;10194452;28;20058;-67
2022/09/14 08:17:53;;;;;;;8.02;4.03;;;;;;;;;;10193906;28;20499;-66
2022/09/14 08:22:51;;;;;;;5.97;2.88;;;;;;;;;;10194295;28;20050;-67
2022/09/14 08:27:51;;;;;;;2.45;2.03;;;;;;;;;;10198664;28;20054;-67
2022/09/14 08:32:49;;;;;;;7.07;2.58;;;;;;;;;;10199866;28;20058;-67
2022/09/14 08:37:53;;;;;;;4.13;2.15;;;;;;;;;;10199512;28;20476;-68
2022/09/14 08:42:59;;;;;;;2.47;2.28;;;;;;;;;;10200162;28;20088;-69
2022/09/14 08:48:03;;;;;;;7.38;2.42;;;;;;;;;;10199238;28;20485;-67
2022/09/14 08:53:02;;;;;;;3.97;3.42;;;;;;;;;;10203870;28;20082;-67
2022/09/14 08:58:07;;;;;;;14.85;9.32;;;;;;;;;;10199060;28;20050;-68
2022/09/14 09:03:29;;;;;;;5.68;3.10;;;;;;;;;;10203699;28;20052;-68
2022/09/14 09:08:34;;;;;;;10.77;7.78;;;;;;;;;;10185434;28;20523;-68
2022/09/14 09:13:38;;;;;;;4.50;2.47;;;;;;;;;;10199731;28;20046;-67
2022/09/14 09:18:39;;;;;;;2.67;2.47;;;;;;;;;;10199725;28;20046;-67
2022/09/14 09:23:37;;;;;;;8.68;3.33;;;;;;;;;;10197507;28;20077;-67
2022/09/14 09:28:40;;;;;;;3.40;2.22;;;;;;;;;;10198391;28;20086;-67
2022/09/14 09:33:41;;;;;;;4.22;2.25;;;;;;;;;;10198557;28;20057;-67
2022/09/14 09:38:48;;;;;;;6.22;2.50;;;;;;;;;;10179385;28;20062;-66
2022/09/14 09:44:00;;;;;;;4.15;2.70;;;;;;;;;;10197261;28;20056;-67
2022/09/14 09:49:03;;;;;;;4.10;3.33;;;;;;;;;;10197557;28;20080;-67
2022/09/14 09:54:07;;;;;;;5.13;2.40;;;;;;;;;;10197362;28;20410;-67
2022/09/14 09:59:20;;;;;;;11.18;8.57;;;;;;;;;;10196350;28;20046;-67
2022/09/14 10:04:20;;;;;;;9.23;3.20;;;;;;;;;;10196519;28;20088;-66
2022/09/14 10:09:19;;;;;;;4.43;3.17;;;;;;;;;;10197422;28;20492;-66
2022/09/14 10:14:23;;;;;;;15.45;3.38;;;;;;;;;;10196241;28;20463;-68
2022/09/14 10:19:24;;;;;;;4.97;2.30;;;;;;;;;;10178065;28;20057;-67
2022/09/14 10:24:23;;;;;;;4.15;2.58;;;;;;;;;;10195680;28;20070;-67
2022/09/14 10:29:29;;;;;;;6.53;2.75;;;;;;;;;;10193366;28;20088;-67
2022/09/14 10:34:27;;;;;;;5.25;3.28;;;;;;;;;;10195231;28;20064;-67
2022/09/14 10:39:30;;;;;;;2.22;1.80;;;;;;;;;;10195619;28;20527;-66
2022/09/14 10:44:38;;;;;;;5.20;2.75;;;;;;;;;;10194692;28;20052;-68
2022/09/14 10:49:43;;;;;;;3.50;1.85;;;;;;;;;;10195276;28;20053;-66
2022/09/14 10:54:51;;;;;;;3.88;1.70;;;;;;;;;;10194539;28;20057;-67
2022/09/14 10:59:54;;;;;;;4.15;1.70;;;;;;;;;;10195219;28;20042;-67
2022/09/14 11:04:57;;;;;;;2.30;2.00;;;;;;;;;;10194339;28;20073;-67
2022/09/14 11:10:00;;;;;;;3.65;2.40;;;;;;;;;;10194853;28;20081;-65
2022/09/14 11:15:08;;;;;;;4.93;2.40;;;;;;;;;;10194344;28;20054;-66
2022/09/14 11:20:12;;;;;;;3.88;1.52;;;;;;;;;;10194111;28;20038;-67
2022/09/14 11:25:12;;;;;;;2.22;1.90;;;;;;;;;;10194282;28;20084;-66
2022/09/14 11:30:14;;;;;;;5.15;1.95;;;;;;;;;;10192951;28;20079;-67
2022/09/14 11:35:14;;;;;;;2.88;2.22;;;;;;;;;;10193457;28;20539;-67
2022/09/14 11:40:18;;;;;;;2.25;1.80;;;;;;;;;;10192936;28;20078;-67
2022/09/14 11:45:20;;;;;;;4.97;2.08;;;;;;;;;;10193640;28;20088;-66
2022/09/14 11:50:20;;;;;;;5.07;1.83;;;;;;;;;;10194394;28;20073;-66
2022/09/14 11:55:18;;;;;;;2.10;1.80;;;;;;;;;;10192925;28;20488;-66
2022/09/14 12:00:35;;;;;;;2.08;1.88;;;;;;;;;;10193133;28;20073;-67
2022/09/14 12:05:35;;;;;;;3.08;2.28;;;;;;;;;;10196819;28;20081;-66
2022/09/14 12:10:48;;;;;;;4.22;2.58;;;;;;;;;;10199888;28;20073;-66
2022/09/14 12:15:46;;;;;;;9.75;2.00;;;;;;;;;;10200000;28;20315;-66
2022/09/14 12:20:51;;;;;;;7.45;2.88;;;;;;;;;;10200439;28;20100;-66
2022/09/14 12:25:53;;;;;;;6.13;2.72;;;;;;;;;;10199409;28;20077;-66
2022/09/14 12:31:11;;;;;;;4.32;3.20;;;;;;;;;;10200788;28;20046;-67
2022/09/14 12:36:12;;;;;;;4.80;2.55;;;;;;;;;;10198726;28;20046;-67
2022/09/14 12:41:29;;;;;;;2.95;1.80;;;;;;;;;;10199712;28;20085;-66
2022/09/14 12:46:31;;;;;;;6.68;2.05;;;;;;;;;;10200516;28;20088;-67
2022/09/14 12:51:35;;;;;;;6.45;2.40;;;;;;;;;;10200004;28;20041;-67
2022/09/14 12:56:33;;;;;;;;;;;;;;;;;;10199655;28;20096;-66
2022/09/14 13:01:36;;;;;;;3.83;2.38;;;;;;;;;;10198799;28;19956;-66
2022/09/14 13:06:40;;;;;;;4.07;1.83;;;;;;;;;;10181012;28;20093;-66
2022/09/14 13:11:40;;;;;;;6.57;1.95;;;;;;;;;;10198280;28;20067;-66
2022/09/14 13:16:40;;;;;;;4.28;1.92;;;;;;;;;;10198042;28;20050;-66
2022/09/14 13:21:45;;;;;;;6.07;2.88;;;;;;;;;;10197782;28;20523;-66
2022/09/14 13:26:43;;;;;;;5.25;2.42;;;;;;;;;;10197202;28;20543;-67
2022/09/14 13:31:44;;;;;;;8.13;2.00;;;;;;;;;;10196843;28;20061;-66
2022/09/14 13:36:44;;;;;;;3.53;2.60;;;;;;;;;;10195808;28;20068;-65
2022/09/14 13:41:43;;;;;;;3.55;2.60;;;;;;;;;;10196377;28;20459;-66
2022/09/14 13:46:41;;;;;;;4.53;2.35;;;;;;;;;;10195962;28;20488;-66
2022/09/14 13:51:39;;;;;;;7.85;2.83;;;;;;;;;;10195851;28;20074;-66
2022/09/14 13:56:39;;;;;;;9.45;2.33;;;;;;;;;;10196106;28;20080;-66
2022/09/14 14:01:38;;;;;;;7.30;2.45;;;;;;;;;;10196413;28;20042;-66
2022/09/14 14:06:37;;;;;;;6.25;2.92;;;;;;;;;;10195929;28;20096;-66
2022/09/14 14:11:36;;;;;;;5.57;2.55;;;;;;;;;;10195895;28;20046;-66
2022/09/14 14:16:36;;;;;;;6.63;2.50;;;;;;;;;;10196290;28;20085;-66
2022/09/14 14:21:37;;;;;;;6.18;2.60;;;;;;;;;;10194852;28;20046;-65
2022/09/14 14:26:35;;;;;;;9.57;3.55;;;;;;;;;;10194338;28;20084;-66
2022/09/14 14:31:34;;;;;;;3.55;2.97;;;;;;;;;;10195338;28;20069;-66
2022/09/14 14:36:34;;;;;;;5.40;2.92;;;;;;;;;;10195523;28;20046;-66
2022/09/14 14:41:32;;;;;;;5.90;3.60;;;;;;;;;;10194308;28;20058;-65
2022/09/14 14:46:31;;;;;;;2.88;2.30;;;;;;;;;;10194960;28;20081;-66
2022/09/14 14:51:29;;;;;;;3.78;2.63;;;;;;;;;;10194475;28;20314;-65
2022/09/14 14:56:29;;;;;;;8.57;3.58;;;;;;;;;;10195251;28;20045;-67
2022/09/14 15:01:27;;;;;;;5.70;4.15;;;;;;;;;;10195184;28;20050;-66
2022/09/14 15:06:27;;;;;;;7.15;3.30;;;;;;;;;;10193352;28;20350;-67
2022/09/14 15:11:25;;;;;;;11.52;7.80;;;;;;;;;;10194823;28;20073;-66
2022/09/14 15:16:24;;;;;;;9.77;6.70;;;;;;;;;;10193626;28;20085;-66
2022/09/14 15:21:23;;;;;;;22.30;13.65;;;;;;;;;;10194651;28;20088;-65
2022/09/14 15:26:23;;;;;;;14.07;9.55;;;;;;;;;;10194582;28;20420;-65
2022/09/14 15:31:21;;;;;;;6.85;3.85;;;;;;;;;;10193833;28;20084;-66
2022/09/14 15:36:36;;;;;;;8.95;3.58;;;;;;;;;;10194056;28;20053;-67
2022/09/14 15:41:34;;;;;;;4.75;2.30;;;;;;;;;;10201356;28;20053;-66
2022/09/14 15:46:33;;;;;;;13.38;3.33;;;;;;;;;;10201232;28;20084;-65
2022/09/14 15:51:31;;;;;;;6.20;2.90;;;;;;;;;;10200487;28;20056;-66
2022/09/14 15:56:31;;;;;;;4.65;2.63;;;;;;;;;;10200969;28;20077;-66
2022/09/14 16:01:30;;;;;;;6.82;2.78;;;;;;;;;;10202082;28;20057;-66
2022/09/14 16:06:28;;;;;;;9.80;3.05;;;;;;;;;;10201364;28;20061;-66
2022/09/14 16:11:26;;;;;;;3.22;2.65;;;;;;;;;;10198303;28;20057;-66
2022/09/14 16:16:26;;;;;;;8.25;2.85;;;;;;;;;;10201362;28;20046;-66
2022/09/14 16:21:26;;;;;;;4.22;3.30;;;;;;;;;;10201072;28;20534;-66
2022/09/14 16:26:25;;;;;;;3.13;2.40;;;;;;;;;;10200977;28;20042;-66
2022/09/14 16:31:24;;;;;;;6.60;3.10;;;;;;;;;;10201478;28;20080;-67
2022/09/14 16:36:24;;;;;;;11.15;3.20;;;;;;;;;;10200591;28;20050;-66
2022/09/14 16:41:23;;;;;;;7.28;2.85;;;;;;;;;;10199702;28;20050;-66
2022/09/14 16:46:21;;;;;;;7.60;3.20;;;;;;;;;;10200386;28;20038;-66
2022/09/14 16:51:20;;;;;;;6.40;2.92;;;;;;;;;;10199120;28;20081;-67
2022/09/14 16:56:20;;;;;;;9.73;3.33;;;;;;;;;;10181339;28;20050;-68
2022/09/14 17:01:22;;;;;;;10.48;3.28;;;;;;;;;;10200036;28;20050;-69
2022/09/14 17:06:21;;;;;;;4.10;3.15;;;;;;;;;;10199441;28;20085;-69
2022/09/14 17:11:21;;;;;;;7.03;3.25;;;;;;;;;;10199352;28;20519;-69
2022/09/14 17:16:20;;;;;;;4.88;2.20;;;;;;;;;;10198960;28;20046;-69
2022/09/14 17:21:19;;;;;;;4.80;2.50;;;;;;;;;;10198797;28;20057;-69
2022/09/14 17:26:19;;;;;;;4.35;2.70;;;;;;;;;;10198356;28;20057;-69
2022/09/14 17:31:20;;;;;;;10.75;2.85;;;;;;;;;;10197195;28;20088;-69
2022/09/14 17:36:18;;;;;;;6.35;2.72;;;;;;;;;;10197843;28;20053;-69
2022/09/14 17:41:17;;;;;;;4.40;2.15;;;;;;;;;;10192169;28;20062;-68
2022/09/14 17:46:16;;;;;;;5.03;2.40;;;;;;;;;;10193469;28;20065;-68
2022/09/14 17:51:19;;;;;;;6.72;2.67;;;;;;;;;;10174382;28;20085;-68
2022/09/14 17:56:18;;;;;;;8.38;2.90;;;;;;;;;;10193211;28;20407;-68
2022/09/14 18:01:17;;;;;;;3.83;2.50;;;;;;;;;;10194351;28;20081;-66
2022/09/14 18:06:18;;;;;;;4.97;2.55;;;;;;;;;;10191613;28;20566;-66
2022/09/14 18:11:16;;;;;;;3.33;2.80;;;;;;;;;;10194883;28;20056;-67
2022/09/14 18:16:16;;;;;;;4.57;2.75;;;;;;;;;;10196859;28;20412;-68
2022/09/14 18:21:15;;;;;;;4.35;2.40;;;;;;;;;;10196182;28;20108;-68
2022/09/14 18:26:22;;;;;;;4.20;2.63;;;;;;;;;;10351379;28;20412;-67
2022/09/14 18:31:21;;;;;;;8.88;3.60;;;;;;;;;;10346621;28;20151;-68
2022/09/14 18:36:19;;;;;;;4.10;2.25;;;;;;;;;;10332445;28;20473;-66
2022/09/14 18:41:17;;;;;;;3.53;2.80;;;;;;;;;;10320342;28;20041;-66
2022/09/14 18:46:17;;;;;;;3.78;2.10;;;;;;;;;;10328065;28;20075;-67
2022/09/14 18:51:16;;;;;;;3.15;2.28;;;;;;;;;;10318134;28;20052;-67
2022/09/14 18:56:15;;;;;;;4.32;2.15;;;;;;;;;;10322485;28;20053;-66
2022/09/14 19:01:14;;;;;;;3.65;2.55;;;;;;;;;;10323359;28;21412;-66
2022/09/14 19:06:15;;;;;;;3.70;2.53;;;;;;;;;;10307670;28;20075;-67
2022/09/14 19:11:17;;;;;;;7.10;3.63;;;;;;;;;;10325288;28;20489;-67
2022/09/14 19:16:16;;;;;;;4.40;2.35;;;;;;;;;;10323385;28;20066;-68
2022/09/14 19:21:16;;;;;;;5.72;2.20;;;;;;;;;;10326874;28;20044;-68
2022/09/14 19:26:20;;;;;;;8.23;1.90;;;;;;;;;;10306845;28;20072;-66
2022/09/14 19:31:19;;;;;;;4.03;1.92;;;;;;;;;;10307469;28;20049;-67
2022/09/14 19:36:20;;;;;;;4.45;2.25;;;;;;;;;;10287432;28;20051;-68
2022/09/14 19:41:19;;;;;;;4.43;1.77;;;;;;;;;;10280528;28;20049;-68
2022/09/14 19:46:22;;;;;;;4.68;1.85;;;;;;;;;;10301901;28;20085;-67
2022/09/14 19:51:24;;;;;;;2.67;1.83;;;;;;;;;;10300917;28;20040;-68
2022/09/14 19:56:24;;;;;;;5.97;2.28;;;;;;;;;;10286252;28;20076;-67
2022/09/14 20:01:24;;;;;;;2.10;1.65;;;;;;;;;;10315880;28;20095;-67
2022/09/14 20:06:24;;;;;;;5.55;1.90;;;;;;;;;;10299377;28;20112;-68
2022/09/14 20:11:24;;;;;;;3.97;2.05;;;;;;;;;;10289947;28;20041;-67
2022/09/14 20:16:26;;;;;;;2.45;1.80;;;;;;;;;;10278887;28;20041;-68
2022/09/14 20:21:27;;;;;;;4.07;1.90;;;;;;;;;;10279507;28;20453;-67
2022/09/14 20:26:25;;;;;;;4.55;1.70;;;;;;;;;;10287584;28;20079;-68
2022/09/14 20:31:23;;;;;;;2.08;1.85;;;;;;;;;;10302437;28;20091;-68
2022/09/14 20:36:24;;;;;;;3.30;1.80;;;;;;;;;;10286407;28;20729;-67
2022/09/14 20:41:24;;;;;;;5.13;1.77;;;;;;;;;;10281235;28;20486;-67
2022/09/14 20:46:23;;;;;;;4.38;1.80;;;;;;;;;;10297011;28;20113;-69
2022/09/14 20:51:22;;;;;;;7.80;1.48;;;;;;;;;;10296674;28;20091;-66
2022/09/14 20:56:22;;;;;;;9.18;2.00;;;;;;;;;;10297395;28;20033;-67
2022/09/14 21:01:23;;;;;;;4.70;1.85;;;;;;;;;;10297219;28;20071;-68
2022/09/14 21:06:22;;;;;;;4.25;2.55;;;;;;;;;;10296207;28;20064;-68
2022/09/14 21:11:22;;;;;;;5.60;2.05;;;;;;;;;;10295232;28;20045;-68
2022/09/14 21:16:22;;;;;;;5.95;2.10;;;;;;;;;;10296039;28;20043;-67
2022/09/14 21:21:21;;;;;;;3.42;1.95;;;;;;;;;;10295750;28;20095;-68
2022/09/14 21:26:20;;;;;;;2.72;1.83;;;;;;;;;;10296279;28;20106;-68
2022/09/14 21:31:19;;;;;;;4.88;1.67;;;;;;;;;;10296527;28;20036;-67
2022/09/14 21:36:19;;;;;;;1.80;1.58;;;;;;;;;;10295532;28;20034;-67
2022/09/14 21:41:18;;;;;;;3.35;1.60;;;;;;;;;;10296542;28;20048;-67
2022/09/14 21:46:17;;;;;;;3.85;1.20;;;;;;;;;;10294819;28;20075;-67
2022/09/14 21:51:17;;;;;;;1.50;1.38;;;;;;;;;;10295706;28;20449;-67
2022/09/14 21:56:17;;;;;;;3.75;1.83;;;;;;;;;;10294449;28;20065;-67
2022/09/14 22:01:15;;;;;;;2.38;1.73;;;;;;;;;;10295855;28;20040;-67
2022/09/14 22:06:15;;;;;;;2.63;1.60;;;;;;;;;;10294292;28;21038;-67
2022/09/14 22:11:14;;;;;;;2.05;1.70;;;;;;;;;;10294056;28;20069;-67
2022/09/14 22:16:18;;;;;;;2.58;1.85;;;;;;;;;;10293650;28;20108;-67
2022/09/14 22:21:17;;;;;;;5.13;1.70;;;;;;;;;;10281777;28;20055;-67
2022/09/14 22:26:15;;;;;;;5.75;1.83;;;;;;;;;;10294426;28;20775;-67
2022/09/14 22:31:13;;;;;;;4.40;2.85;;;;;;;;;;10274862;28;20040;-66
2022/09/14 22:36:13;;;;;;;2.42;1.45;;;;;;;;;;10275326;28;20521;-66
2022/09/14 22:41:12;;;;;;;4.32;1.65;;;;;;;;;;10275112;28;20052;-67
2022/09/14 22:46:11;;;;;;;1.98;1.30;;;;;;;;;;10274751;28;20080;-67
2022/09/14 22:51:10;;;;;;;1.60;1.50;;;;;;;;;;10274561;28;20045;-67
2022/09/14 22:56:11;;;;;;;1.92;1.70;;;;;;;;;;10274767;28;20045;-68
2022/09/14 23:01:10;;;;;;;1.75;1.58;;;;;;;;;;10274620;28;20072;-67
2022/09/14 23:06:09;;;;;;;4.32;1.42;;;;;;;;;;10275090;28;20537;-67
2022/09/14 23:11:09;;;;;;;3.05;1.42;;;;;;;;;;10279359;28;20056;-67
2022/09/14 23:16:12;;;;;;;1.58;1.48;;;;;;;;;;10281990;28;20052;-67
2022/09/14 23:21:12;;;;;;;2.60;1.60;;;;;;;;;;10281713;28;20091;-68
2022/09/14 23:26:11;;;;;;;1.42;1.33;;;;;;;;;;10281990;28;20084;-68
2022/09/14 23:31:09;;;;;;;2.88;1.40;;;;;;;;;;10281726;28;20095;-68
2022/09/14 23:36:09;;;;;;;4.22;1.75;;;;;;;;;;10280639;28;20060;-68
2022/09/14 23:41:07;;;;;;;3.92;1.30;;;;;;;;;;10281072;28;20041;-67
2022/09/14 23:46:14;;;;;;;2.00;1.77;;;;;;;;;;10280675;28;20084;-68
2022/09/14 23:51:14;;;;;;;3.47;1.60;;;;;;;;;;10280094;28;20037;-67
2022/09/14 23:56:13;;;;;;;3.33;1.63;;;;;;;;;;10280723;28;20419;-67
